createdAt,value
2023-01-15T00:01:43.948Z,96445.84
2023-01-15T00:04:13.647Z,96383.00
2023-01-15T00:06:41.455Z,96338.41
2023-01-15T00:09:08.410Z,96345.06
2023-01-15T00:11:34.959Z,96446.84
2023-01-15T00:14:01.550Z,96358.34
2023-01-15T00:16:28.294Z,96451.28
2023-01-15T00:18:56.431Z,96283.72
2023-01-15T00:21:23.139Z,96211.59
2023-01-15T00:24:08.399Z,96295.69
2023-01-15T00:26:53.658Z,96281.28
2023-01-15T00:29:20.236Z,96399.84
2023-01-15T00:31:57.838Z,96447.19
2023-01-15T00:34:25.101Z,96412.88
2023-01-15T00:36:51.665Z,96280.47
2023-01-15T00:39:18.425Z,96424.91
2023-01-15T00:41:44.990Z,96266.81
2023-01-15T00:44:11.555Z,96388.81
2023-01-15T00:46:38.215Z,96455.06
2023-01-15T00:49:04.983Z,96299.09
2023-01-15T00:51:31.572Z,96460.31
2023-01-15T00:53:58.118Z,96233.38
2023-01-15T00:56:24.649Z,96418.16
2023-01-15T00:58:51.156Z,96396.69
2023-01-15T01:01:17.783Z,96226.81
2023-01-15T01:03:48.854Z,96357.19
2023-01-15T01:06:16.937Z,96335.03
2023-01-15T01:08:46.103Z,96355.69
2023-01-15T01:11:14.402Z,96290.38
2023-01-15T01:13:41.035Z,96306.75
2023-01-15T01:16:33.665Z,96422.91
2023-01-15T01:19:00.662Z,96375.66
2023-01-15T01:21:27.353Z,96197.03
2023-01-15T01:23:53.981Z,96331.06
2023-01-15T01:26:20.778Z,96344.66
2023-01-15T01:28:51.100Z,96333.56
2023-01-15T01:31:17.735Z,96291.38
2023-01-15T01:33:44.367Z,96386.84
2023-01-15T01:36:10.983Z,96414.44
2023-01-15T01:38:37.496Z,96362.09
2023-01-15T01:41:04.093Z,96189.47
2023-01-15T01:43:30.790Z,96331.13
2023-01-15T01:45:57.394Z,96319.88
2023-01-15T01:48:29.451Z,96210.75
2023-01-15T01:50:56.661Z,96187.81
2023-01-15T01:53:25.314Z,96262.56
2023-01-15T01:55:51.857Z,96315.81
2023-01-15T01:58:18.459Z,96049.66
2023-01-15T02:00:46.728Z,96236.09
2023-01-15T02:03:13.361Z,96294.41
2023-01-15T02:05:46.055Z,96153.56
2023-01-15T02:08:12.675Z,96292.78
2023-01-15T02:10:39.325Z,96288.47
2023-01-15T02:13:19.287Z,96318.63
2023-01-15T02:15:48.054Z,96085.25
2023-01-15T02:18:28.793Z,96165.94
2023-01-15T02:20:59.614Z,96371.94
2023-01-15T02:24:06.683Z,96286.59
2023-01-15T02:27:08.715Z,96368.56
2023-01-15T02:29:38.410Z,96359.19
2023-01-15T02:32:10.948Z,96207.25
2023-01-15T02:34:38.249Z,96352.41
2023-01-15T02:37:07.588Z,96269.22
2023-01-15T02:39:35.026Z,96264.03
2023-01-15T02:42:02.692Z,96193.56
2023-01-15T02:44:29.994Z,96156.72
2023-01-15T02:46:56.741Z,96250.28
2023-01-15T02:49:23.316Z,96270.94
2023-01-15T02:52:02.125Z,96283.03
2023-01-15T02:54:30.378Z,96192.97
2023-01-15T02:56:57.313Z,96090.06
2023-01-15T02:59:26.661Z,96205.81
2023-01-15T03:01:58.800Z,96247.66
2023-01-15T03:04:31.756Z,96267.63
2023-01-15T03:07:18.677Z,96299.41
2023-01-15T03:09:45.657Z,96161.31
2023-01-15T03:12:18.207Z,96190.53
2023-01-15T03:14:46.761Z,96309.06
2023-01-15T03:17:39.401Z,96233.50
2023-01-15T03:20:16.581Z,96297.19
2023-01-15T03:22:45.084Z,96274.94
2023-01-15T03:25:42.715Z,96255.19
2023-01-15T03:28:09.323Z,96290.28
2023-01-15T03:30:35.911Z,96022.81
2023-01-15T03:33:02.464Z,96101.66
2023-01-15T03:35:49.058Z,96056.31
2023-01-15T03:38:17.871Z,96127.41
2023-01-15T03:41:13.606Z,96274.25
2023-01-15T03:44:08.151Z,96266.59
2023-01-15T03:46:37.571Z,96267.44
2023-01-15T03:49:13.372Z,96266.59
2023-01-15T03:51:56.173Z,96146.38
2023-01-15T03:54:27.217Z,96157.50
2023-01-15T03:57:09.222Z,96156.56
2023-01-15T03:59:38.888Z,96275.91
2023-01-15T04:02:07.015Z,96063.34
2023-01-15T04:04:34.076Z,96046.00
2023-01-15T04:07:00.803Z,96125.16
2023-01-15T04:09:27.402Z,96087.44
2023-01-15T04:11:53.908Z,96144.91
2023-01-15T04:14:20.417Z,96228.09
2023-01-15T04:16:46.973Z,96107.25
2023-01-15T04:19:13.617Z,96150.16
2023-01-15T04:21:40.142Z,95996.75
2023-01-15T04:24:07.137Z,96087.59
2023-01-15T04:26:33.690Z,96043.13
2023-01-15T04:29:00.202Z,96074.84
2023-01-15T04:31:27.928Z,96070.44
2023-01-15T04:33:54.455Z,95973.53
2023-01-15T04:36:21.010Z,96136.44
2023-01-15T04:38:47.585Z,96138.28
2023-01-15T04:41:32.944Z,95986.59
2023-01-15T04:44:08.497Z,95979.78
2023-01-15T04:46:44.836Z,96050.66
2023-01-15T04:49:13.197Z,96087.81
2023-01-15T04:51:39.920Z,96151.31
2023-01-15T04:54:07.424Z,95841.28
2023-01-15T04:56:37.792Z,96048.44
2023-01-15T04:59:04.321Z,96149.44
2023-01-15T05:01:30.973Z,96105.09
2023-01-15T05:03:58.397Z,96134.25
2023-01-15T05:06:25.749Z,95989.44
2023-01-15T05:08:52.730Z,96118.81
2023-01-15T05:11:19.353Z,96145.38
2023-01-15T05:13:45.901Z,96007.56
2023-01-15T05:16:14.864Z,96035.78
2023-01-15T05:18:42.425Z,96111.34
2023-01-15T05:21:22.524Z,95968.81
2023-01-15T05:23:49.989Z,96138.03
2023-01-15T05:26:16.808Z,96172.28
2023-01-15T05:28:43.384Z,95893.03
2023-01-15T05:31:11.987Z,96114.88
2023-01-15T05:33:38.869Z,96053.97
2023-01-15T05:36:07.401Z,95990.31
2023-01-15T05:38:33.949Z,96161.25
2023-01-15T05:41:04.171Z,96161.25
2023-01-15T05:43:31.459Z,96006.94
2023-01-15T05:46:02.079Z,96079.69
2023-01-15T05:48:29.104Z,96103.88
2023-01-15T05:50:55.610Z,95927.38
2023-01-15T05:53:22.112Z,95855.41
2023-01-15T05:55:48.661Z,96121.84
2023-01-15T05:58:15.259Z,96007.03
2023-01-15T06:00:42.000Z,95876.88
2023-01-15T06:03:08.556Z,95940.22
2023-01-15T06:05:35.116Z,95925.56
2023-01-15T06:08:01.647Z,96055.94
2023-01-15T06:10:28.207Z,96095.28
2023-01-15T06:12:54.723Z,95929.13
2023-01-15T06:15:21.269Z,96106.47
2023-01-15T06:17:50.105Z,95858.16
2023-01-15T06:20:16.768Z,96049.91
2023-01-15T06:22:43.331Z,95940.34
2023-01-15T06:25:09.868Z,95923.22
2023-01-15T06:27:36.515Z,96098.84
2023-01-15T06:30:03.136Z,96045.81
2023-01-15T06:32:29.658Z,96047.53
2023-01-15T06:34:56.241Z,95870.31
2023-01-15T06:37:22.839Z,96092.91
2023-01-15T06:39:49.404Z,95997.03
2023-01-15T06:42:34.895Z,96023.50
2023-01-15T06:45:20.128Z,96083.56
2023-01-15T06:47:47.502Z,95869.59
2023-01-15T06:50:14.435Z,96016.00
2023-01-15T06:52:41.006Z,95995.41
2023-01-15T06:55:07.971Z,96013.41
2023-01-15T06:57:34.494Z,95915.00
2023-01-15T07:00:01.089Z,96086.19
2023-01-15T07:02:27.657Z,96070.81
2023-01-15T07:04:54.326Z,96109.31
2023-01-15T07:07:20.979Z,96072.53
2023-01-15T07:09:47.581Z,96015.19
2023-01-15T07:12:14.181Z,96033.13
2023-01-15T07:14:40.966Z,96075.19
2023-01-15T07:17:07.548Z,96015.19
2023-01-15T07:19:34.124Z,96030.69
2023-01-15T07:22:00.706Z,96035.78
2023-01-15T07:24:27.240Z,95992.25
2023-01-15T07:26:53.869Z,96083.84
2023-01-15T07:29:20.469Z,96007.53
2023-01-15T07:31:47.084Z,96078.63
2023-01-15T07:34:13.758Z,96071.88
2023-01-15T07:36:40.282Z,96005.03
2023-01-15T07:39:07.234Z,95999.03
2023-01-15T07:41:52.346Z,96041.81
2023-01-15T07:44:37.401Z,96056.28
2023-01-15T07:47:22.602Z,96039.28
2023-01-15T07:49:49.267Z,96033.25
2023-01-15T07:52:17.400Z,96028.06
2023-01-15T07:54:44.743Z,95968.94
2023-01-15T07:57:12.004Z,96111.97
2023-01-15T07:59:38.623Z,96015.16
2023-01-15T08:02:05.303Z,96034.78
2023-01-15T08:04:31.956Z,96070.84
2023-01-15T08:07:02.081Z,96074.31
2023-01-15T08:09:28.803Z,96016.00
2023-01-15T08:12:13.833Z,96067.53
2023-01-15T08:14:59.044Z,96006.69
2023-01-15T08:17:25.569Z,96051.31
2023-01-15T08:19:52.106Z,96041.00
2023-01-15T08:22:18.645Z,95983.59
2023-01-15T08:24:45.210Z,96100.84
2023-01-15T08:27:12.237Z,95972.41
2023-01-15T08:29:38.788Z,96052.97
2023-01-15T08:32:05.500Z,96034.97
2023-01-15T08:34:32.012Z,96034.84
2023-01-15T08:37:00.451Z,96045.09
2023-01-15T08:39:27.758Z,95987.78
2023-01-15T08:41:55.135Z,96044.19
2023-01-15T08:44:21.994Z,96075.91
2023-01-15T08:46:48.630Z,96026.16
2023-01-15T08:49:15.256Z,96103.25
2023-01-15T08:51:42.157Z,96037.25
2023-01-15T08:54:08.700Z,96087.66
2023-01-15T08:56:35.224Z,96024.94
2023-01-15T08:59:08.208Z,96169.53
2023-01-15T09:01:35.334Z,96154.00
2023-01-15T09:04:02.019Z,96167.56
2023-01-15T09:06:28.563Z,96099.00
2023-01-15T09:08:55.148Z,96168.47
2023-01-15T09:11:21.719Z,96108.41
2023-01-15T09:13:50.162Z,96125.50
2023-01-15T09:16:17.478Z,96153.06
2023-01-15T09:18:44.193Z,96155.41
2023-01-15T09:21:10.844Z,96154.47
2023-01-15T09:23:37.378Z,96184.44
2023-01-15T09:26:06.220Z,96215.19
2023-01-15T09:28:33.435Z,96187.78
2023-01-15T09:31:00.166Z,96233.00
2023-01-15T09:33:26.730Z,96212.41
2023-01-15T09:35:53.451Z,96183.09
2023-01-15T09:38:20.745Z,96188.22
2023-01-15T09:40:56.286Z,96240.47
2023-01-15T09:43:50.101Z,96309.09
2023-01-15T09:46:45.321Z,96240.22
2023-01-15T09:49:39.921Z,96339.69
2023-01-15T09:52:51.116Z,96346.38
2023-01-15T09:55:21.282Z,96381.31
2023-01-15T09:57:50.522Z,96261.09
2023-01-15T10:00:22.039Z,96330.53
2023-01-15T10:02:52.676Z,96281.50
2023-01-15T10:05:20.548Z,96345.75
2023-01-15T10:08:15.370Z,96394.00
2023-01-15T10:11:06.998Z,96360.34
2023-01-15T10:13:46.844Z,96409.34
2023-01-15T10:16:18.099Z,96417.00
2023-01-15T10:18:44.629Z,96326.72
2023-01-15T10:21:42.340Z,96413.63
2023-01-15T10:24:34.485Z,96417.00
2023-01-15T10:27:01.055Z,96359.38
2023-01-15T10:30:06.344Z,96411.41
2023-01-15T10:32:44.257Z,96410.53
2023-01-15T10:35:38.829Z,96381.34
2023-01-15T10:38:43.681Z,96340.88
2023-01-15T10:41:28.741Z,96431.72
2023-01-15T10:44:18.609Z,96467.94
2023-01-15T10:46:49.231Z,96407.72
2023-01-15T10:49:17.142Z,96397.38
2023-01-15T11:39:01.242Z,96418.59
2023-01-15T11:41:53.893Z,96432.41
2023-01-15T11:44:40.027Z,96467.63
2023-01-15T11:47:36.326Z,96401.28
2023-01-15T11:50:21.521Z,96470.88
2023-01-15T11:52:49.733Z,96437.22
2023-01-15T11:55:18.662Z,96508.44
2023-01-15T11:57:45.415Z,96457.78
2023-01-15T12:00:29.395Z,96523.66
2023-01-15T12:03:02.481Z,96499.53
2023-01-15T12:05:34.389Z,96526.97
2023-01-15T12:08:19.208Z,96480.31
2023-01-15T12:11:21.342Z,96547.72
2023-01-15T12:14:01.036Z,96496.13
2023-01-15T12:16:40.876Z,96531.38
2023-01-15T12:19:11.100Z,96370.75
2023-01-15T12:21:59.580Z,96523.97
2023-01-15T12:24:48.033Z,96562.19
2023-01-15T12:27:30.105Z,96504.13
2023-01-15T12:29:59.681Z,96401.88
2023-01-15T12:32:37.654Z,96510.00
2023-01-15T12:35:16.031Z,96490.47
2023-01-15T12:37:48.392Z,96589.38
2023-01-15T12:40:14.862Z,96602.94
2023-01-15T12:43:01.016Z,96516.03
2023-01-15T12:45:30.578Z,96358.53
2023-01-15T12:47:57.026Z,96600.41
2023-01-15T12:50:44.974Z,96444.44
2023-01-15T12:59:03.018Z,96612.31
2023-01-15T13:01:49.137Z,96619.91
2023-01-15T13:04:27.681Z,96624.22
2023-01-15T13:06:58.102Z,96632.53
2023-01-15T13:09:35.905Z,96564.50
2023-01-15T13:12:02.472Z,96429.16
2023-01-15T13:14:31.130Z,96593.63
2023-01-15T13:17:04.130Z,96414.28
2023-01-15T13:20:01.796Z,96666.59
2023-01-15T13:22:29.536Z,96521.09
2023-01-15T13:25:23.835Z,96674.13
2023-01-15T13:28:18.549Z,96451.63
2023-01-15T13:30:52.398Z,96676.66
2023-01-15T13:33:22.925Z,96691.06
2023-01-15T13:35:54.864Z,96550.38
2023-01-15T13:38:22.915Z,96680.63
2023-01-15T13:40:52.130Z,96725.06
2023-01-15T13:43:55.231Z,96683.81
2023-01-15T13:46:21.910Z,96706.00
2023-01-15T13:48:51.505Z,96446.66
2023-01-15T13:51:29.677Z,96743.75
2023-01-15T13:53:56.683Z,96529.09
2023-01-15T13:56:28.661Z,96703.38
2023-01-15T13:58:57.596Z,96632.53
2023-01-15T14:01:30.404Z,96751.41
2023-01-15T14:03:59.608Z,96755.72
2023-01-15T14:06:40.125Z,96700.31
2023-01-15T14:09:09.088Z,96707.94
2023-01-15T14:11:46.219Z,96748.47
2023-01-15T14:14:29.456Z,96727.06
2023-01-15T14:17:17.328Z,96720.97
2023-01-15T14:19:51.655Z,96773.56
2023-01-15T14:22:27.816Z,96775.28
2023-01-15T14:25:15.651Z,96779.50
2023-01-15T14:28:03.628Z,96789.69
2023-01-15T14:30:45.806Z,96645.97
2023-01-15T14:33:37.759Z,96739.00
2023-01-15T14:36:23.492Z,96762.31
2023-01-15T14:38:52.454Z,96680.41
2023-01-15T14:41:26.271Z,96651.00
2023-01-15T14:43:52.797Z,96755.28
2023-01-15T14:46:37.765Z,96731.16
2023-01-15T14:49:04.519Z,96680.06
2023-01-15T14:51:47.682Z,96756.91
2023-01-15T14:54:16.323Z,96615.75
2023-01-15T14:56:44.941Z,96704.66
2023-01-15T14:59:25.805Z,96676.81
2023-01-15T15:01:55.283Z,96718.13
2023-01-15T15:04:48.988Z,96793.91
2023-01-15T15:07:32.389Z,96777.38
2023-01-15T15:10:17.485Z,96746.41
2023-01-15T15:13:16.689Z,96728.94
2023-01-15T15:15:48.741Z,96708.31
2023-01-15T15:18:25.615Z,96771.09
2023-01-15T15:20:55.072Z,96810.00
2023-01-15T15:23:53.944Z,96809.22
2023-01-15T15:26:31.676Z,96759.22
2023-01-15T15:29:01.743Z,96799.81
2023-01-15T15:31:29.526Z,96739.97
2023-01-15T15:33:56.166Z,96736.31
2023-01-15T15:36:27.952Z,96801.97
2023-01-15T15:38:56.065Z,96790.06
2023-01-15T15:41:42.872Z,96695.16
2023-01-15T15:44:34.742Z,96687.22
2023-01-15T15:47:21.384Z,96803.56
2023-01-15T15:49:47.921Z,96756.81
2023-01-15T15:52:22.733Z,96755.16
2023-01-15T15:54:59.482Z,96767.97
2023-01-15T15:57:27.355Z,96774.66
2023-01-15T15:59:53.948Z,96783.63
2023-01-15T16:02:30.908Z,96838.88
2023-01-15T16:05:21.236Z,96801.91
2023-01-15T16:07:47.761Z,96811.25
2023-01-15T16:10:15.193Z,96702.69
2023-01-15T16:12:44.613Z,96631.94
2023-01-15T16:15:23.374Z,96787.25
2023-01-15T16:17:49.971Z,96700.09
2023-01-15T16:20:18.057Z,96827.63
2023-01-15T16:22:46.184Z,96782.66
2023-01-15T16:25:24.872Z,96789.56
2023-01-15T16:27:51.639Z,96768.09
2023-01-15T16:30:18.311Z,96686.28
2023-01-15T16:32:44.935Z,96741.44
2023-01-15T16:35:24.124Z,96615.41
2023-01-15T16:37:52.535Z,96582.75
2023-01-15T16:40:29.544Z,96809.25
2023-01-15T16:43:04.667Z,96826.69
2023-01-15T16:45:31.237Z,96736.19
2023-01-15T16:48:07.912Z,96744.78
2023-01-15T16:50:35.478Z,96752.47
2023-01-15T16:53:03.073Z,96836.28
2023-01-15T16:55:35.888Z,96844.81
2023-01-15T16:58:14.773Z,96825.03
2023-01-15T17:00:43.229Z,96799.94
2023-01-15T17:03:13.719Z,96806.06
2023-01-15T17:05:40.457Z,96819.59
2023-01-15T17:08:20.979Z,96769.44
2023-01-15T17:10:55.748Z,96822.44
2023-01-15T17:13:22.373Z,96818.66
2023-01-15T17:16:16.017Z,96830.03
2023-01-15T17:18:42.657Z,96809.84
2023-01-15T17:21:15.889Z,96849.88
2023-01-15T17:23:43.052Z,96722.13
2023-01-15T17:26:14.827Z,96836.00
2023-01-15T17:28:41.464Z,96835.03
2023-01-15T17:31:12.482Z,96777.84
2023-01-15T17:33:39.096Z,96802.16
2023-01-15T17:36:05.827Z,96727.09
2023-01-15T17:38:32.400Z,96808.09
2023-01-15T17:40:59.368Z,96771.91
2023-01-15T17:43:26.493Z,96581.34
2023-01-15T17:45:53.127Z,96700.31
2023-01-15T17:48:19.683Z,96753.41
2023-01-15T17:50:46.319Z,96794.44
2023-01-15T17:53:12.951Z,96842.75
2023-01-15T17:55:58.282Z,96767.78
2023-01-15T17:58:43.228Z,96720.41
2023-01-15T18:01:32.684Z,96753.75
2023-01-15T18:04:18.126Z,96753.13
2023-01-15T18:06:47.591Z,96791.03
2023-01-15T18:09:14.149Z,96862.31
2023-01-15T18:11:40.737Z,96711.72
2023-01-15T18:14:07.330Z,96722.03
2023-01-15T18:16:33.897Z,96834.31
2023-01-15T18:19:00.418Z,96850.47
2023-01-15T18:21:27.563Z,96730.69
2023-01-15T18:23:54.122Z,96850.72
2023-01-15T18:26:20.787Z,96804.28
2023-01-15T18:28:48.598Z,96730.81
2023-01-15T18:31:15.141Z,96625.63
2023-01-15T18:33:47.745Z,96599.75
2023-01-15T18:36:14.562Z,96707.09
2023-01-15T18:38:44.117Z,96592.09
2023-01-15T18:41:33.754Z,96627.97
2023-01-15T18:44:23.137Z,96748.84
2023-01-15T18:46:52.759Z,96752.50
2023-01-15T18:49:19.563Z,96786.13
2023-01-15T18:52:06.152Z,96784.53
2023-01-15T18:54:32.749Z,96769.56
2023-01-15T18:56:59.280Z,96622.72
2023-01-15T18:59:25.912Z,96764.44
2023-01-15T19:01:52.619Z,96803.44
2023-01-15T19:04:20.436Z,96834.59
2023-01-15T19:06:47.690Z,96753.41
2023-01-15T19:09:16.964Z,96767.81
2023-01-15T19:11:44.203Z,96649.91
2023-01-15T19:14:29.548Z,96787.00
2023-01-15T19:17:14.439Z,96734.47
2023-01-15T19:19:43.241Z,96689.72
2023-01-15T19:22:29.030Z,96800.97
2023-01-15T19:24:55.651Z,96623.25
2023-01-15T19:27:22.298Z,96730.25
2023-01-15T19:29:48.938Z,96688.78
2023-01-15T19:32:15.546Z,96814.75
2023-01-15T19:34:42.041Z,96688.06
2023-01-15T19:37:08.739Z,96632.69
2023-01-15T19:39:35.345Z,96776.91
2023-01-15T19:42:20.699Z,96758.91
2023-01-15T19:45:05.951Z,96727.81
2023-01-15T19:47:56.015Z,96790.88
2023-01-15T19:50:29.272Z,96622.69
2023-01-15T19:52:55.879Z,96610.09
2023-01-15T19:55:23.885Z,96708.34
2023-01-15T19:57:56.733Z,96649.00
2023-01-15T20:00:23.479Z,96664.41
2023-01-15T20:02:50.101Z,96763.75
2023-01-15T20:05:16.943Z,96676.72
2023-01-15T20:07:43.783Z,96706.91
2023-01-15T20:10:15.149Z,96494.16
2023-01-15T20:13:00.206Z,96782.03
2023-01-15T20:15:26.816Z,96744.81
2023-01-15T20:17:53.385Z,96760.78
2023-01-15T20:20:20.145Z,96710.81
2023-01-15T20:22:46.923Z,96642.69
2023-01-15T20:25:13.497Z,96521.91
2023-01-15T20:27:40.318Z,96656.56
2023-01-15T20:30:14.565Z,96657.38
2023-01-15T20:32:42.849Z,96635.94
2023-01-15T20:35:11.750Z,96710.94
2023-01-15T20:37:38.289Z,96592.91
2023-01-15T20:40:05.576Z,96705.88
2023-01-15T20:42:51.006Z,96674.09
2023-01-15T20:45:17.581Z,96627.63
2023-01-15T20:48:02.426Z,96656.03
2023-01-15T20:50:31.091Z,96617.47
2023-01-15T20:52:58.707Z,96734.72
2023-01-15T20:55:57.667Z,96715.66
2023-01-15T20:58:24.679Z,96701.13
2023-01-15T21:00:51.378Z,96701.84
2023-01-15T21:03:18.255Z,96733.78
2023-01-15T21:05:44.899Z,96633.84
2023-01-15T21:08:11.576Z,96697.72
2023-01-15T21:10:38.974Z,96623.72
2023-01-15T21:13:05.494Z,96652.84
2023-01-15T21:15:32.113Z,96602.28
2023-01-15T21:17:58.719Z,96688.63
2023-01-15T21:20:25.382Z,96586.09
2023-01-15T21:22:51.970Z,96700.66
2023-01-15T21:25:18.541Z,96712.88
2023-01-15T21:27:45.081Z,96691.28
2023-01-15T21:30:12.046Z,96696.50
2023-01-15T21:32:38.662Z,96576.88
2023-01-15T21:35:05.554Z,96648.44
2023-01-15T21:37:32.159Z,96609.63
2023-01-15T21:39:58.679Z,96645.16
2023-01-15T21:42:43.930Z,96654.69
2023-01-15T21:45:11.618Z,96644.16
2023-01-15T21:47:38.272Z,96582.34
2023-01-15T21:50:05.654Z,96627.84
2023-01-15T21:52:33.689Z,96641.81
2023-01-15T21:55:00.435Z,96619.47
2023-01-15T21:57:29.094Z,96609.16
2023-01-15T21:59:55.858Z,96614.34
2023-01-15T22:02:23.449Z,96643.91
2023-01-15T22:04:50.227Z,96657.69
2023-01-15T22:07:18.317Z,96627.78
2023-01-15T22:09:45.115Z,96501.22
2023-01-15T22:12:12.681Z,96508.13
2023-01-15T22:14:39.250Z,96541.81
2023-01-15T22:17:05.879Z,96497.13
2023-01-15T22:19:32.734Z,96566.09
2023-01-15T22:22:04.202Z,96468.03
2023-01-15T22:24:32.594Z,96468.88
2023-01-15T22:26:59.765Z,96596.34
2023-01-15T22:29:31.166Z,96455.31
2023-01-15T22:31:58.288Z,96493.06
2023-01-15T22:34:26.107Z,96532.97
2023-01-15T22:36:52.769Z,96576.06
2023-01-15T22:39:20.237Z,96557.28
2023-01-15T22:42:05.484Z,96342.28
2023-01-15T22:44:32.646Z,96522.97
2023-01-15T22:46:59.291Z,96502.31
2023-01-15T22:49:25.922Z,96495.59
2023-01-15T22:51:52.459Z,96486.19
2023-01-15T22:54:19.382Z,96521.47
2023-01-15T22:56:46.389Z,96379.69
2023-01-15T22:59:13.160Z,96385.72
2023-01-15T23:01:40.126Z,96394.25
2023-01-15T23:04:20.913Z,96460.69
2023-01-15T23:06:48.882Z,96294.03
2023-01-15T23:09:15.658Z,96434.22
2023-01-15T23:11:42.226Z,96480.75
2023-01-15T23:14:09.673Z,96360.44
2023-01-15T23:16:36.243Z,96365.69
2023-01-15T23:19:02.961Z,96480.88
2023-01-15T23:21:29.648Z,96254.00
2023-01-15T23:23:57.231Z,96355.44
2023-01-15T23:26:24.094Z,96437.13
2023-01-15T23:28:50.999Z,96446.50
2023-01-15T23:31:18.504Z,96381.22
2023-01-15T23:33:45.493Z,96246.28
2023-01-15T23:36:12.446Z,96287.41
2023-01-15T23:38:39.997Z,96263.28
2023-01-15T23:41:10.669Z,96303.75
2023-01-15T23:43:58.838Z,96385.53
2023-01-15T23:46:35.591Z,96403.66
2023-01-15T23:49:04.267Z,96250.72
2023-01-15T23:51:30.923Z,96261.00
2023-01-15T23:53:57.703Z,96382.94
2023-01-15T23:56:24.247Z,96434.47
2023-01-15T23:58:50.955Z,96402.78
